Time;durP1;ratioP1;P1;durP2;ratioP2;P2;SDS_P1;SDS_P2;PMS_P1;PMS_P2;Temp;Humidity;BMP_temperature;BMP_pressure;BME280_temperature;BME280_humidity;BME280_pressure;Samples;Min_cycle;Max_cycle;Signal;HPM_P1;HPM_P2
2023/10/04 00:02:12;;;;;;;14.43;3.53;;;;;;;;;;4993508;28;20612;-67
2023/10/04 00:04:39;;;;;;;12.23;2.97;;;;;;;;;;4993986;28;20248;-68
2023/10/04 00:07:04;;;;;;;9.65;3.20;;;;;;;;;;4994053;28;20479;-68
2023/10/04 00:09:31;;;;;;;7.47;2.67;;;;;;;;;;4993886;28;20081;-67
2023/10/04 00:11:57;;;;;;;11.02;3.33;;;;;;;;;;4993995;28;20034;-67
2023/10/04 00:14:22;;;;;;;8.47;3.43;;;;;;;;;;4994015;28;20030;-67
2023/10/04 00:16:47;;;;;;;9.07;3.28;;;;;;;;;;4994205;28;20023;-67
2023/10/04 00:19:12;;;;;;;12.43;3.20;;;;;;;;;;4993811;28;20080;-68
2023/10/04 00:21:38;;;;;;;11.33;3.77;;;;;;;;;;4993911;28;20352;-67
2023/10/04 00:24:04;;;;;;;11.07;3.93;;;;;;;;;;4993827;28;20260;-67
2023/10/04 00:26:30;;;;;;;12.50;3.17;;;;;;;;;;4993759;28;20255;-67
2023/10/04 00:28:55;;;;;;;18.95;3.03;;;;;;;;;;4993797;28;20018;-67
2023/10/04 00:31:21;;;;;;;14.80;3.17;;;;;;;;;;4993912;28;20109;-67
2023/10/04 00:33:49;;;;;;;13.20;3.75;;;;;;;;;;4993139;28;20099;-67
2023/10/04 00:36:20;;;;;;;10.57;3.25;;;;;;;;;;4993793;28;20553;-67
2023/10/04 00:38:45;;;;;;;9.18;3.00;;;;;;;;;;4993638;28;20022;-67
2023/10/04 00:41:11;;;;;;;8.43;3.00;;;;;;;;;;4993820;28;20020;-67
2023/10/04 00:43:49;;;;;;;9.88;3.38;;;;;;;;;;4993927;28;20252;-67
2023/10/04 00:46:17;;;;;;;10.07;2.92;;;;;;;;;;4993947;28;20037;-67
2023/10/04 00:48:44;;;;;;;10.20;3.05;;;;;;;;;;4993913;28;20512;-67
2023/10/04 00:51:09;;;;;;;9.45;2.67;;;;;;;;;;4993548;28;20035;-67
2023/10/04 00:53:34;;;;;;;8.93;3.40;;;;;;;;;;4993681;28;20102;-67
2023/10/04 00:55:59;;;;;;;8.67;2.77;;;;;;;;;;4993509;28;20018;-67
2023/10/04 00:58:25;;;;;;;8.07;3.37;;;;;;;;;;4993474;28;20659;-67
2023/10/04 01:00:50;;;;;;;9.32;3.08;;;;;;;;;;4993601;28;20023;-67
2023/10/04 01:03:19;;;;;;;10.90;4.03;;;;;;;;;;4993554;28;20019;-67
2023/10/04 01:05:50;;;;;;;8.88;3.33;;;;;;;;;;4993777;28;20424;-67
2023/10/04 01:08:17;;;;;;;12.73;3.28;;;;;;;;;;4993750;28;20022;-67
2023/10/04 01:10:46;;;;;;;11.27;3.30;;;;;;;;;;4993334;28;20490;-67
2023/10/04 01:13:14;;;;;;;9.65;3.45;;;;;;;;;;4993657;28;20590;-67
2023/10/04 01:15:39;;;;;;;9.63;2.97;;;;;;;;;;4997021;28;20390;-67
2023/10/04 01:18:07;;;;;;;14.65;3.35;;;;;;;;;;4996986;28;20034;-68
2023/10/04 01:20:33;;;;;;;7.60;2.28;;;;;;;;;;4997076;28;20467;-67
2023/10/04 01:23:00;;;;;;;7.82;2.97;;;;;;;;;;4996979;28;20085;-67
2023/10/04 01:25:26;;;;;;;8.20;2.97;;;;;;;;;;4996982;28;20383;-67
2023/10/04 01:27:51;;;;;;;9.02;2.85;;;;;;;;;;4997105;28;20022;-67
2023/10/04 01:30:17;;;;;;;6.38;2.88;;;;;;;;;;4996851;28;20010;-67
2023/10/04 01:32:43;;;;;;;13.27;3.27;;;;;;;;;;4996846;28;20069;-67
2023/10/04 01:35:08;;;;;;;11.63;2.92;;;;;;;;;;4996803;28;20240;-67
2023/10/04 01:37:37;;;;;;;7.35;2.72;;;;;;;;;;4996599;28;20014;-67
2023/10/04 01:40:05;;;;;;;3.65;1.58;;;;;;;;;;4996925;28;20026;-67
2023/10/04 01:42:30;;;;;;;6.00;2.78;;;;;;;;;;4996844;28;20474;-67
2023/10/04 01:44:55;;;;;;;10.30;2.83;;;;;;;;;;4996647;28;20097;-68
2023/10/04 01:47:21;;;;;;;10.80;2.37;;;;;;;;;;4996545;28;20014;-67
2023/10/04 01:49:46;;;;;;;5.15;2.50;;;;;;;;;;4996746;28;20022;-67
2023/10/04 01:52:13;;;;;;;6.80;2.25;;;;;;;;;;4996572;28;20109;-67
2023/10/04 01:54:38;;;;;;;11.82;3.25;;;;;;;;;;4996398;28;20023;-67
2023/10/04 01:57:05;;;;;;;9.50;3.25;;;;;;;;;;4996308;28;20382;-67
2023/10/04 01:59:31;;;;;;;10.20;2.97;;;;;;;;;;4996147;28;20026;-67
2023/10/04 02:01:57;;;;;;;11.80;3.30;;;;;;;;;;4996567;28;20046;-67
2023/10/04 02:04:23;;;;;;;11.82;2.67;;;;;;;;;;4996167;28;20540;-67
2023/10/04 02:06:48;;;;;;;7.38;2.67;;;;;;;;;;4996142;28;20058;-67
2023/10/04 02:09:16;;;;;;;4.30;1.77;;;;;;;;;;4995951;28;20086;-67
2023/10/04 02:11:41;;;;;;;7.85;2.70;;;;;;;;;;4996086;28;20474;-67
2023/10/04 02:14:07;;;;;;;5.22;2.35;;;;;;;;;;4996023;28;20026;-67
2023/10/04 02:16:34;;;;;;;11.07;2.25;;;;;;;;;;4996257;28;20037;-67
2023/10/04 02:19:01;;;;;;;7.10;2.42;;;;;;;;;;4995977;28;20105;-67
2023/10/04 02:21:26;;;;;;;5.47;2.17;;;;;;;;;;4995873;28;20084;-67
2023/10/04 02:23:53;;;;;;;8.53;2.73;;;;;;;;;;4995803;28;20026;-67
2023/10/04 02:26:22;;;;;;;9.90;2.55;;;;;;;;;;4995084;28;20050;-67
2023/10/04 02:28:47;;;;;;;10.73;2.63;;;;;;;;;;4995741;28;20033;-67
2023/10/04 02:31:12;;;;;;;8.33;1.83;;;;;;;;;;4995749;28;20030;-67
2023/10/04 02:33:38;;;;;;;7.83;2.27;;;;;;;;;;4995713;28;20038;-67
2023/10/04 02:36:07;;;;;;;8.20;2.25;;;;;;;;;;4994386;28;20122;-68
2023/10/04 02:38:34;;;;;;;5.90;2.47;;;;;;;;;;4995528;28;20030;-67
2023/10/04 02:40:59;;;;;;;5.68;2.35;;;;;;;;;;4995753;28;20022;-67
2023/10/04 02:43:25;;;;;;;6.15;2.63;;;;;;;;;;4995497;28;20023;-68
2023/10/04 02:45:52;;;;;;;4.82;2.60;;;;;;;;;;4995422;28;20073;-68
2023/10/04 02:48:18;;;;;;;6.55;2.10;;;;;;;;;;4995651;28;20478;-68
2023/10/04 02:50:44;;;;;;;8.48;2.28;;;;;;;;;;4995354;28;20046;-67
2023/10/04 02:53:12;;;;;;;10.27;2.65;;;;;;;;;;4995548;28;20437;-67
2023/10/04 02:55:38;;;;;;;9.60;2.55;;;;;;;;;;4995174;28;20018;-67
2023/10/04 02:58:07;;;;;;;9.20;2.50;;;;;;;;;;4995086;28;20026;-67
2023/10/04 03:00:33;;;;;;;4.82;1.88;;;;;;;;;;4995232;28;20018;-67
2023/10/04 03:02:58;;;;;;;6.32;2.55;;;;;;;;;;4995134;28;20174;-67
2023/10/04 03:05:28;;;;;;;9.00;2.40;;;;;;;;;;4995074;28;20037;-67
2023/10/04 03:07:54;;;;;;;12.60;2.38;;;;;;;;;;4995325;28;20076;-67
2023/10/04 03:10:25;;;;;;;7.88;2.20;;;;;;;;;;4994852;28;20506;-67
2023/10/04 03:12:56;;;;;;;5.93;2.20;;;;;;;;;;4995180;28;20018;-67
2023/10/04 03:15:22;;;;;;;9.38;2.47;;;;;;;;;;4994843;28;20023;-67
2023/10/04 03:17:48;;;;;;;2.72;1.50;;;;;;;;;;4995049;28;20022;-67
2023/10/04 03:20:20;;;;;;;4.32;1.90;;;;;;;;;;4995037;28;20026;-67
2023/10/04 03:22:45;;;;;;;;;;;;;;;;;;4995488;28;20026;-67
2023/10/04 03:25:10;;;;;;;3.43;1.87;;;;;;;;;;4994743;28;19912;-67
2023/10/04 03:27:36;;;;;;;7.50;2.25;;;;;;;;;;4994730;28;20109;-67
2023/10/04 03:30:05;;;;;;;4.53;1.70;;;;;;;;;;4994675;28;20019;-67
2023/10/04 03:32:30;;;;;;;5.07;2.00;;;;;;;;;;4994633;28;20379;-67
2023/10/04 03:34:55;;;;;;;5.55;2.17;;;;;;;;;;4994669;28;20049;-67
2023/10/04 03:37:29;;;;;;;5.60;2.35;;;;;;;;;;4994755;28;20053;-67
2023/10/04 03:39:54;;;;;;;3.33;1.42;;;;;;;;;;4994717;28;20026;-67
2023/10/04 03:42:20;;;;;;;3.78;1.52;;;;;;;;;;4994708;28;20434;-67
2023/10/04 03:44:47;;;;;;;8.60;2.20;;;;;;;;;;4994419;28;20018;-67
2023/10/04 03:47:12;;;;;;;5.07;1.95;;;;;;;;;;4994621;28;20027;-67
2023/10/04 03:49:39;;;;;;;6.47;2.38;;;;;;;;;;4994280;28;20437;-67
2023/10/04 03:52:04;;;;;;;5.07;2.00;;;;;;;;;;4994342;28;20509;-67
2023/10/04 03:54:30;;;;;;;6.70;1.83;;;;;;;;;;4994145;28;20062;-67
2023/10/04 03:56:55;;;;;;;4.93;1.93;;;;;;;;;;4994285;28;20117;-67
2023/10/04 03:59:22;;;;;;;2.60;1.40;;;;;;;;;;4994103;28;20080;-67
2023/10/04 04:01:47;;;;;;;3.15;1.60;;;;;;;;;;4994064;28;20240;-67
2023/10/04 04:04:17;;;;;;;3.97;1.85;;;;;;;;;;4994386;28;20022;-67
2023/10/04 04:06:42;;;;;;;2.17;1.23;;;;;;;;;;4994342;28;20022;-67
2023/10/04 04:09:09;;;;;;;2.10;1.45;;;;;;;;;;4993908;28;20521;-67
2023/10/04 04:11:35;;;;;;;2.72;1.55;;;;;;;;;;4994151;28;20026;-67
2023/10/04 04:14:00;;;;;;;2.63;1.40;;;;;;;;;;4993966;28;20019;-67
2023/10/04 04:16:25;;;;;;;2.20;1.25;;;;;;;;;;4994092;28;20081;-67
2023/10/04 04:18:55;;;;;;;2.93;1.20;;;;;;;;;;4993831;28;20072;-67
2023/10/04 04:21:20;;;;;;;2.42;1.40;;;;;;;;;;4993868;28;20018;-67
2023/10/04 04:23:46;;;;;;;4.65;1.58;;;;;;;;;;4994163;28;20493;-67
2023/10/04 04:26:11;;;;;;;3.63;1.70;;;;;;;;;;4993860;28;20098;-67
2023/10/04 04:28:36;;;;;;;2.83;1.40;;;;;;;;;;4994143;28;20018;-67
2023/10/04 04:31:05;;;;;;;3.47;1.30;;;;;;;;;;4994098;28;20033;-67
2023/10/04 04:33:31;;;;;;;5.32;1.60;;;;;;;;;;4993707;28;20260;-67
2023/10/04 04:36:08;;;;;;;3.45;1.95;;;;;;;;;;4994047;28;20113;-67
2023/10/04 04:38:38;;;;;;;3.95;1.45;;;;;;;;;;4993967;28;20030;-67
2023/10/04 04:41:06;;;;;;;5.70;1.55;;;;;;;;;;4993689;28;20054;-67
2023/10/04 04:43:37;;;;;;;2.33;1.10;;;;;;;;;;4993938;28;20022;-67
2023/10/04 04:46:23;;;;;;;25.73;2.67;;;;;;;;;;4993821;28;20057;-67
2023/10/04 04:48:48;;;;;;;9.35;1.70;;;;;;;;;;4994488;28;20018;-67
2023/10/04 04:51:15;;;;;;;2.13;1.33;;;;;;;;;;4997847;28;20378;-67
2023/10/04 04:53:45;;;;;;;3.20;1.40;;;;;;;;;;4997772;28;20105;-67
2023/10/04 04:56:12;;;;;;;6.18;1.70;;;;;;;;;;4997710;28;20026;-67
2023/10/04 04:58:38;;;;;;;3.55;1.45;;;;;;;;;;4997647;28;20109;-67
2023/10/04 05:01:07;;;;;;;3.63;1.38;;;;;;;;;;4997426;28;20046;-67
2023/10/04 05:03:34;;;;;;;4.65;1.80;;;;;;;;;;4997269;28;20029;-67
2023/10/04 05:05:59;;;;;;;3.92;1.63;;;;;;;;;;4997377;28;20022;-67
2023/10/04 05:08:27;;;;;;;3.17;1.37;;;;;;;;;;4995943;28;20028;-67
2023/10/04 05:10:55;;;;;;;2.92;1.35;;;;;;;;;;4997251;28;20251;-67
2023/10/04 05:13:21;;;;;;;6.55;1.35;;;;;;;;;;4997461;28;20026;-67
2023/10/04 05:15:47;;;;;;;4.10;1.77;;;;;;;;;;4997491;28;20390;-67
2023/10/04 05:18:15;;;;;;;4.20;1.73;;;;;;;;;;4997070;28;20359;-67
2023/10/04 05:20:45;;;;;;;2.92;1.48;;;;;;;;;;4997409;28;20014;-66
2023/10/04 05:23:10;;;;;;;3.42;1.63;;;;;;;;;;4997003;28;20053;-66
2023/10/04 05:25:36;;;;;;;3.40;1.70;;;;;;;;;;4997028;28;20027;-66
2023/10/04 05:28:05;;;;;;;1.88;1.13;;;;;;;;;;4996917;28;20267;-67
2023/10/04 05:30:30;;;;;;;3.13;1.30;;;;;;;;;;4996952;28;20026;-66
2023/10/04 05:32:56;;;;;;;3.97;1.75;;;;;;;;;;4997098;28;20110;-66
2023/10/04 05:35:22;;;;;;;3.25;1.50;;;;;;;;;;4996746;28;20109;-66
2023/10/04 05:37:47;;;;;;;3.03;1.58;;;;;;;;;;4996676;28;20083;-66
2023/10/04 05:40:16;;;;;;;4.50;1.77;;;;;;;;;;4996696;28;20022;-66
2023/10/04 05:42:45;;;;;;;6.10;1.58;;;;;;;;;;4996624;28;20033;-66
2023/10/04 05:45:11;;;;;;;7.80;2.08;;;;;;;;;;4996618;28;20041;-66
2023/10/04 05:47:37;;;;;;;4.53;1.73;;;;;;;;;;4996481;28;20029;-66
2023/10/04 05:50:05;;;;;;;5.35;1.63;;;;;;;;;;4996566;28;20022;-66
2023/10/04 05:52:32;;;;;;;4.28;1.73;;;;;;;;;;4996719;28;20029;-66
2023/10/04 05:54:57;;;;;;;3.35;1.60;;;;;;;;;;4996417;28;20022;-66
2023/10/04 05:57:23;;;;;;;6.50;1.92;;;;;;;;;;4996612;28;20033;-66
2023/10/04 05:59:48;;;;;;;6.55;1.80;;;;;;;;;;4996060;28;20022;-66
2023/10/04 06:02:13;;;;;;;2.45;1.35;;;;;;;;;;4995577;28;20113;-66
2023/10/04 06:04:39;;;;;;;3.67;1.50;;;;;;;;;;4996346;28;20026;-66
2023/10/04 06:07:04;;;;;;;4.28;1.45;;;;;;;;;;4996437;28;20609;-66
2023/10/04 06:09:32;;;;;;;2.75;1.30;;;;;;;;;;4996076;28;20042;-66
2023/10/04 06:11:58;;;;;;;4.10;1.60;;;;;;;;;;4996211;28;20493;-66
2023/10/04 06:14:26;;;;;;;4.25;1.60;;;;;;;;;;4996034;28;20102;-66
2023/10/04 06:16:51;;;;;;;4.57;1.70;;;;;;;;;;4996042;28;20451;-66
2023/10/04 06:19:19;;;;;;;2.27;1.47;;;;;;;;;;4995923;28;20054;-66
2023/10/04 06:21:48;;;;;;;2.85;1.55;;;;;;;;;;4995891;28;20026;-66
2023/10/04 06:24:14;;;;;;;3.35;1.35;;;;;;;;;;4995902;28;20026;-66
2023/10/04 06:26:39;;;;;;;3.03;1.50;;;;;;;;;;4995897;28;20535;-66
2023/10/04 06:29:04;;;;;;;3.37;1.87;;;;;;;;;;4995817;28;20382;-66
2023/10/04 06:31:29;;;;;;;2.17;1.13;;;;;;;;;;4996140;28;20321;-66
2023/10/04 06:33:56;;;;;;;3.37;1.27;;;;;;;;;;4995676;28;20279;-66
2023/10/04 06:36:21;;;;;;;1.92;0.93;;;;;;;;;;4995661;28;20022;-66
2023/10/04 06:38:46;;;;;;;2.50;1.30;;;;;;;;;;4995601;28;20415;-66
2023/10/04 06:41:11;;;;;;;1.75;1.10;;;;;;;;;;4995611;28;20244;-67
2023/10/04 06:43:37;;;;;;;2.55;1.50;;;;;;;;;;4995569;28;20029;-66
2023/10/04 06:46:02;;;;;;;2.60;1.30;;;;;;;;;;4995421;28;20463;-66
2023/10/04 06:48:29;;;;;;;1.47;0.80;;;;;;;;;;4995492;28;20026;-66
2023/10/04 06:50:54;;;;;;;3.65;1.40;;;;;;;;;;4995361;28;20076;-66
2023/10/04 06:53:22;;;;;;;2.88;1.40;;;;;;;;;;4995366;28;20026;-67
2023/10/04 06:55:47;;;;;;;5.65;1.23;;;;;;;;;;4995523;28;20033;-67
2023/10/04 06:58:13;;;;;;;3.53;1.33;;;;;;;;;;4995335;28;20027;-67
2023/10/04 07:00:38;;;;;;;6.47;1.83;;;;;;;;;;4995185;28;20407;-67
2023/10/04 07:03:04;;;;;;;6.78;1.70;;;;;;;;;;4995425;28;20244;-67
2023/10/04 07:05:32;;;;;;;4.75;1.65;;;;;;;;;;4995418;28;20026;-67
2023/10/04 07:07:57;;;;;;;10.50;2.20;;;;;;;;;;4995158;28;20024;-67
2023/10/04 07:10:23;;;;;;;5.75;2.30;;;;;;;;;;4994889;28;20121;-67
2023/10/04 07:12:51;;;;;;;13.75;3.90;;;;;;;;;;4994961;28;20098;-67
2023/10/04 07:15:18;;;;;;;24.42;6.15;;;;;;;;;;4994917;28;20046;-67
2023/10/04 07:17:43;;;;;;;10.35;3.60;;;;;;;;;;4995168;28;20093;-67
2023/10/04 07:20:14;;;;;;;18.73;3.50;;;;;;;;;;4994820;28;20514;-67
2023/10/04 07:22:42;;;;;;;18.53;4.33;;;;;;;;;;4995104;28;20772;-67
2023/10/04 07:25:08;;;;;;;13.50;4.25;;;;;;;;;;4995037;28;20518;-67
2023/10/04 07:27:33;;;;;;;16.55;3.78;;;;;;;;;;4994704;28;20057;-67
2023/10/04 07:29:59;;;;;;;17.83;3.13;;;;;;;;;;4994711;28;20570;-67
2023/10/04 07:32:24;;;;;;;15.25;3.42;;;;;;;;;;4994611;28;20026;-67
2023/10/04 07:34:49;;;;;;;12.50;3.47;;;;;;;;;;4994587;28;20104;-67
2023/10/04 07:37:15;;;;;;;10.57;3.83;;;;;;;;;;4994518;28;20256;-67
2023/10/04 07:39:40;;;;;;;7.82;3.60;;;;;;;;;;4994383;28;20030;-67
2023/10/04 07:42:05;;;;;;;13.07;3.47;;;;;;;;;;4994539;28;20026;-66
2023/10/04 07:44:31;;;;;;;12.38;3.55;;;;;;;;;;4994692;28;20014;-67
2023/10/04 07:46:59;;;;;;;18.00;3.92;;;;;;;;;;4994496;28;20485;-67
2023/10/04 07:49:25;;;;;;;7.88;3.13;;;;;;;;;;4994616;28;20018;-66
2023/10/04 07:51:50;;;;;;;14.45;3.90;;;;;;;;;;4994550;28;20483;-67
2023/10/04 07:54:18;;;;;;;11.98;3.83;;;;;;;;;;4994207;28;20033;-66
2023/10/04 07:56:44;;;;;;;11.27;3.75;;;;;;;;;;4994236;28;20022;-66
2023/10/04 07:59:09;;;;;;;17.65;4.00;;;;;;;;;;4994363;28;20425;-66
2023/10/04 08:01:35;;;;;;;13.45;4.78;;;;;;;;;;4994217;28;20482;-66
2023/10/04 08:04:00;;;;;;;10.55;3.70;;;;;;;;;;4994140;28;20015;-66
2023/10/04 08:06:25;;;;;;;17.27;4.20;;;;;;;;;;4994110;28;20045;-66
2023/10/04 08:08:51;;;;;;;9.10;3.80;;;;;;;;;;4994150;28;20116;-67
2023/10/04 08:11:16;;;;;;;16.20;4.63;;;;;;;;;;4994024;28;20283;-66
2023/10/04 08:13:41;;;;;;;13.90;3.97;;;;;;;;;;4994023;28;20030;-66
2023/10/04 08:16:06;;;;;;;13.53;4.30;;;;;;;;;;4994251;28;20061;-66
2023/10/04 08:18:32;;;;;;;15.07;4.17;;;;;;;;;;4993872;28;20356;-67
2023/10/04 08:21:03;;;;;;;13.10;3.80;;;;;;;;;;4993915;28;20015;-66
2023/10/04 08:23:29;;;;;;;13.02;3.88;;;;;;;;;;4993310;28;20026;-66
2023/10/04 08:25:55;;;;;;;15.40;4.80;;;;;;;;;;4993888;28;20113;-67
2023/10/04 08:28:20;;;;;;;16.13;4.63;;;;;;;;;;4994104;28;20026;-66
2023/10/04 08:30:47;;;;;;;16.33;4.33;;;;;;;;;;4993845;28;20386;-67
2023/10/04 08:33:13;;;;;;;19.05;4.47;;;;;;;;;;4994050;28;20497;-67
2023/10/04 08:35:39;;;;;;;17.90;4.10;;;;;;;;;;4993785;28;20022;-67
2023/10/04 08:38:04;;;;;;;15.88;4.22;;;;;;;;;;4993973;28;20038;-67
2023/10/04 08:40:30;;;;;;;17.65;4.13;;;;;;;;;;4994007;28;20026;-67
2023/10/04 08:42:57;;;;;;;18.73;4.07;;;;;;;;;;4994015;28;20105;-67
2023/10/04 08:45:29;;;;;;;13.35;3.88;;;;;;;;;;4993996;28;20022;-67
2023/10/04 08:47:56;;;;;;;11.00;3.58;;;;;;;;;;4993949;28;20363;-66
2023/10/04 08:50:27;;;;;;;16.17;4.40;;;;;;;;;;4993740;28;20098;-67
2023/10/04 08:53:00;;;;;;;22.10;4.93;;;;;;;;;;4993661;28;20049;-67
2023/10/04 08:55:26;;;;;;;16.02;3.95;;;;;;;;;;4994130;28;20419;-66
2023/10/04 08:57:53;;;;;;;16.13;4.60;;;;;;;;;;4993588;28;20019;-67
2023/10/04 09:00:23;;;;;;;14.98;3.50;;;;;;;;;;4993857;28;20486;-67
2023/10/04 09:02:50;;;;;;;14.70;3.70;;;;;;;;;;4993868;28;20025;-67
2023/10/04 09:05:16;;;;;;;13.00;4.18;;;;;;;;;;4993858;28;20481;-67
2023/10/04 09:07:43;;;;;;;14.43;4.10;;;;;;;;;;4993538;28;20030;-67
2023/10/04 09:10:09;;;;;;;17.92;4.72;;;;;;;;;;4993436;28;20085;-67
2023/10/04 09:12:36;;;;;;;15.38;4.53;;;;;;;;;;4993422;28;20084;-67
2023/10/04 09:15:02;;;;;;;13.90;3.72;;;;;;;;;;4993452;28;20065;-67
2023/10/04 09:17:27;;;;;;;11.80;3.05;;;;;;;;;;4993735;28;20026;-67
2023/10/04 09:19:55;;;;;;;12.97;3.73;;;;;;;;;;4993344;28;20026;-67
2023/10/04 09:22:29;;;;;;;16.90;3.28;;;;;;;;;;4993625;28;20376;-67
2023/10/04 09:24:54;;;;;;;21.55;4.43;;;;;;;;;;4993381;28;20026;-67
2023/10/04 09:27:21;;;;;;;12.93;3.28;;;;;;;;;;4993652;28;20030;-67
2023/10/04 09:29:47;;;;;;;14.75;3.55;;;;;;;;;;4993558;28;20489;-67
2023/10/04 09:32:12;;;;;;;15.43;3.97;;;;;;;;;;4993559;28;20181;-67
2023/10/04 09:34:37;;;;;;;14.07;3.50;;;;;;;;;;4993782;28;20097;-67
2023/10/04 09:37:17;;;;;;;13.27;3.43;;;;;;;;;;4996847;28;20712;-67
2023/10/04 09:39:42;;;;;;;11.45;2.95;;;;;;;;;;4996690;28;20033;-67
2023/10/04 09:42:13;;;;;;;13.40;2.60;;;;;;;;;;4996711;28;20022;-67
2023/10/04 09:44:39;;;;;;;9.02;2.60;;;;;;;;;;4996912;28;20023;-67
2023/10/04 09:47:05;;;;;;;10.63;2.90;;;;;;;;;;4996661;28;20387;-67
2023/10/04 09:49:33;;;;;;;15.63;3.53;;;;;;;;;;4996761;28;20482;-67
2023/10/04 09:52:10;;;;;;;19.33;3.30;;;;;;;;;;4996559;28;20041;-67
2023/10/04 09:54:36;;;;;;;12.48;2.75;;;;;;;;;;4996669;28;20030;-67
2023/10/04 09:57:05;;;;;;;18.52;2.88;;;;;;;;;;4996668;28;20360;-67
2023/10/04 09:59:33;;;;;;;17.63;2.33;;;;;;;;;;4996198;28;20126;-67
2023/10/04 10:01:59;;;;;;;15.20;2.90;;;;;;;;;;4995163;28;20023;-67
2023/10/04 10:04:31;;;;;;;22.48;3.63;;;;;;;;;;4996546;28;20382;-67
2023/10/04 10:06:56;;;;;;;;;;;;;;;;;;4996728;28;20073;-67
2023/10/04 10:09:23;;;;;;;17.17;2.40;;;;;;;;;;4996169;28;19918;-67
2023/10/04 10:11:52;;;;;;;12.50;2.30;;;;;;;;;;4996415;28;20050;-67
2023/10/04 10:14:18;;;;;;;16.83;2.78;;;;;;;;;;4996127;28;20018;-67
2023/10/04 10:16:44;;;;;;;11.27;2.17;;;;;;;;;;4996094;28;20029;-67
2023/10/04 10:19:09;;;;;;;12.20;2.25;;;;;;;;;;4995977;28;20038;-67
2023/10/04 10:21:53;;;;;;;11.88;3.13;;;;;;;;;;4996006;28;20027;-67
2023/10/04 10:24:20;;;;;;;13.07;2.25;;;;;;;;;;4995961;28;20364;-67
2023/10/04 10:26:47;;;;;;;12.57;2.10;;;;;;;;;;4996155;28;20407;-67
2023/10/04 10:29:20;;;;;;;11.45;2.10;;;;;;;;;;4996056;28;20386;-67
2023/10/04 10:31:52;;;;;;;10.68;1.70;;;;;;;;;;4995809;28;20442;-67
2023/10/04 10:34:17;;;;;;;11.18;2.05;;;;;;;;;;4995730;28;20018;-67
2023/10/04 10:36:42;;;;;;;10.77;1.83;;;;;;;;;;4995619;28;20068;-67
2023/10/04 10:39:20;;;;;;;11.35;1.73;;;;;;;;;;4995817;28;20320;-67
2023/10/04 10:41:51;;;;;;;11.02;1.67;;;;;;;;;;4995810;28;20421;-67
2023/10/04 10:44:19;;;;;;;15.13;2.07;;;;;;;;;;4995808;28;20018;-67
2023/10/04 10:47:06;;;;;;;12.70;1.88;;;;;;;;;;4994878;28;20248;-67
2023/10/04 10:49:40;;;;;;;13.23;2.10;;;;;;;;;;4995715;28;20478;-67
2023/10/04 10:52:24;;;;;;;15.35;2.13;;;;;;;;;;4995375;28;20022;-67
2023/10/04 10:54:49;;;;;;;9.23;1.85;;;;;;;;;;4995512;28;20385;-67
2023/10/04 10:57:16;;;;;;;15.75;2.38;;;;;;;;;;4994147;28;20022;-67
2023/10/04 10:59:41;;;;;;;10.10;2.03;;;;;;;;;;4995200;28;20033;-67
2023/10/04 11:02:06;;;;;;;9.23;1.63;;;;;;;;;;4995320;28;20426;-67
2023/10/04 11:04:32;;;;;;;11.73;1.48;;;;;;;;;;4995410;28;20532;-67
2023/10/04 11:06:57;;;;;;;14.98;1.60;;;;;;;;;;4995409;28;20073;-67
2023/10/04 11:09:22;;;;;;;6.50;1.80;;;;;;;;;;4995066;28;20133;-67
2023/10/04 11:11:48;;;;;;;9.52;1.60;;;;;;;;;;4995398;28;20034;-68
2023/10/04 11:14:16;;;;;;;10.20;1.65;;;;;;;;;;4995184;28;20029;-67
2023/10/04 11:16:41;;;;;;;7.57;1.58;;;;;;;;;;4994941;28;20022;-67
2023/10/04 11:19:06;;;;;;;10.10;1.50;;;;;;;;;;4994784;28;20371;-67
2023/10/04 11:21:32;;;;;;;6.73;1.93;;;;;;;;;;4994876;28;20022;-67
2023/10/04 11:24:01;;;;;;;11.20;1.30;;;;;;;;;;4994852;28;20016;-67
2023/10/04 11:26:26;;;;;;;9.85;1.67;;;;;;;;;;4994777;28;20041;-67
2023/10/04 11:28:52;;;;;;;7.35;1.50;;;;;;;;;;4994683;28;20026;-67
2023/10/04 11:31:18;;;;;;;7.47;1.42;;;;;;;;;;4994921;28;20378;-67
2023/10/04 11:33:50;;;;;;;8.07;1.13;;;;;;;;;;4994638;28;20030;-67
2023/10/04 11:36:18;;;;;;;6.32;1.63;;;;;;;;;;4994833;28;20351;-67
2023/10/04 11:38:47;;;;;;;6.05;1.17;;;;;;;;;;4994472;28;20030;-67
2023/10/04 11:41:13;;;;;;;6.78;1.58;;;;;;;;;;4994493;28;20108;-67
2023/10/04 11:43:38;;;;;;;10.25;1.20;;;;;;;;;;4994740;28;20025;-67
2023/10/04 11:46:03;;;;;;;8.23;1.40;;;;;;;;;;4994467;28;20023;-68
2023/10/04 11:48:29;;;;;;;6.88;1.30;;;;;;;;;;4994758;28;20244;-67
2023/10/04 11:50:54;;;;;;;6.55;1.33;;;;;;;;;;4994653;28;20149;-67
2023/10/04 11:53:33;;;;;;;11.38;1.77;;;;;;;;;;4994286;28;20015;-68
2023/10/04 11:56:08;;;;;;;4.40;1.55;;;;;;;;;;4994476;28;20585;-67
2023/10/04 11:58:47;;;;;;;8.38;1.52;;;;;;;;;;4993241;28;20053;-67
2023/10/04 12:01:14;;;;;;;7.40;1.27;;;;;;;;;;4994405;28;20045;-67
2023/10/04 12:03:40;;;;;;;6.53;1.38;;;;;;;;;;4994189;28;20026;-67
2023/10/04 12:06:06;;;;;;;7.07;1.33;;;;;;;;;;4994364;28;20022;-67
2023/10/04 12:08:32;;;;;;;7.65;1.58;;;;;;;;;;4994229;28;20081;-67
2023/10/04 12:10:57;;;;;;;12.17;1.73;;;;;;;;;;4994035;28;20022;-67
2023/10/04 12:13:23;;;;;;;8.77;1.38;;;;;;;;;;4994286;28;20030;-67
2023/10/04 12:15:48;;;;;;;10.05;1.77;;;;;;;;;;4994012;28;20110;-67
2023/10/04 12:18:15;;;;;;;9.70;1.83;;;;;;;;;;4994127;28;20093;-67
2023/10/04 12:20:41;;;;;;;7.70;1.80;;;;;;;;;;4994081;28;20022;-67
2023/10/04 12:23:06;;;;;;;9.75;1.95;;;;;;;;;;4993970;28;20128;-67
2023/10/04 12:25:31;;;;;;;9.18;2.10;;;;;;;;;;4994180;28;20053;-67
2023/10/04 12:27:57;;;;;;;8.10;2.25;;;;;;;;;;4993975;28;20106;-67
2023/10/04 12:30:27;;;;;;;10.30;2.35;;;;;;;;;;4994089;28;20101;-67
2023/10/04 12:32:53;;;;;;;12.50;2.10;;;;;;;;;;4994073;28;20421;-67
2023/10/04 12:35:18;;;;;;;10.50;2.58;;;;;;;;;;4993835;28;20026;-67
2023/10/04 12:37:43;;;;;;;7.22;1.98;;;;;;;;;;4994044;28;20038;-67
2023/10/04 12:40:17;;;;;;;7.57;2.47;;;;;;;;;;4993754;28;20134;-67
2023/10/04 12:42:43;;;;;;;8.93;2.25;;;;;;;;;;4993726;28;20142;-67
2023/10/04 12:45:10;;;;;;;15.05;2.80;;;;;;;;;;4993755;28;20049;-67
2023/10/04 12:47:35;;;;;;;12.20;2.80;;;;;;;;;;4993974;28;20482;-67
2023/10/04 12:50:00;;;;;;;8.32;2.20;;;;;;;;;;4993727;28;20090;-67
2023/10/04 12:52:25;;;;;;;8.80;2.80;;;;;;;;;;4993684;28;20470;-67
2023/10/04 12:54:51;;;;;;;7.87;2.33;;;;;;;;;;4993591;28;20019;-67
2023/10/04 12:57:17;;;;;;;14.73;2.70;;;;;;;;;;4993904;28;20077;-67
2023/10/04 12:59:43;;;;;;;10.70;2.92;;;;;;;;;;4993566;28;20431;-67
2023/10/04 13:02:08;;;;;;;13.55;3.25;;;;;;;;;;4993812;28;20018;-67
2023/10/04 13:04:35;;;;;;;8.98;2.63;;;;;;;;;;4993592;28;20014;-67
2023/10/04 13:07:01;;;;;;;10.63;2.65;;;;;;;;;;4993860;28;20044;-67
2023/10/04 13:09:28;;;;;;;16.55;3.08;;;;;;;;;;4993560;28;20402;-67
2023/10/04 13:11:53;;;;;;;15.00;2.65;;;;;;;;;;4997240;28;20019;-67
2023/10/04 13:14:19;;;;;;;13.97;2.70;;;;;;;;;;4997484;28;20033;-67
2023/10/04 13:16:45;;;;;;;11.30;2.90;;;;;;;;;;4997099;28;20314;-67
2023/10/04 13:19:11;;;;;;;10.07;2.60;;;;;;;;;;4997334;28;20038;-67
2023/10/04 13:21:37;;;;;;;12.27;2.70;;;;;;;;;;4997372;28;20048;-67
2023/10/04 13:24:02;;;;;;;8.55;2.72;;;;;;;;;;4997337;28;20018;-67
2023/10/04 13:26:28;;;;;;;13.57;2.78;;;;;;;;;;4997131;28;20422;-67
2023/10/04 13:28:53;;;;;;;9.23;2.87;;;;;;;;;;4997188;28;20018;-67
2023/10/04 13:31:18;;;;;;;13.13;3.97;;;;;;;;;;4997029;28;20430;-67
2023/10/04 13:33:43;;;;;;;10.67;3.77;;;;;;;;;;4996872;28;20248;-67
2023/10/04 13:36:09;;;;;;;13.85;3.60;;;;;;;;;;4996844;28;20501;-67
2023/10/04 13:38:34;;;;;;;11.43;3.03;;;;;;;;;;4996791;28;20447;-67
2023/10/04 13:41:00;;;;;;;14.13;3.60;;;;;;;;;;4996886;28;20518;-67
2023/10/04 13:43:25;;;;;;;11.93;3.40;;;;;;;;;;4996941;28;20073;-67
2023/10/04 13:45:52;;;;;;;12.10;3.22;;;;;;;;;;4996688;28;20398;-67
2023/10/04 13:48:19;;;;;;;8.82;2.72;;;;;;;;;;4996904;28;20018;-67
2023/10/04 13:50:46;;;;;;;10.48;2.97;;;;;;;;;;4996860;28;20505;-67
2023/10/04 13:53:11;;;;;;;9.73;2.95;;;;;;;;;;4996809;28;20379;-67
2023/10/04 13:55:36;;;;;;;7.47;2.90;;;;;;;;;;4996459;28;20080;-67
2023/10/04 13:58:02;;;;;;;10.70;2.78;;;;;;;;;;4996641;28;20244;-67
2023/10/04 14:00:27;;;;;;;9.10;2.58;;;;;;;;;;4996360;28;20149;-67
2023/10/04 14:02:54;;;;;;;10.48;2.38;;;;;;;;;;4996624;28;20057;-67
2023/10/04 14:05:20;;;;;;;12.70;2.45;;;;;;;;;;4996277;28;20034;-67
2023/10/04 14:07:50;;;;;;;10.57;3.03;;;;;;;;;;4996246;28;20018;-67
2023/10/04 14:10:16;;;;;;;13.73;3.10;;;;;;;;;;4996054;28;20457;-67
2023/10/04 14:12:41;;;;;;;8.75;2.67;;;;;;;;;;4996422;28;20026;-67
2023/10/04 14:15:10;;;;;;;9.37;2.57;;;;;;;;;;4996094;28;20029;-67
2023/10/04 14:17:36;;;;;;;11.65;2.58;;;;;;;;;;4996015;28;20279;-67
2023/10/04 14:20:01;;;;;;;8.00;2.50;;;;;;;;;;4995993;28;20060;-67
2023/10/04 14:22:26;;;;;;;11.02;2.80;;;;;;;;;;4995004;28;20331;-67
2023/10/04 14:24:51;;;;;;;11.10;2.70;;;;;;;;;;4995981;28;20023;-67
2023/10/04 14:27:16;;;;;;;14.77;2.93;;;;;;;;;;4995888;28;20510;-67
2023/10/04 14:29:42;;;;;;;11.90;3.07;;;;;;;;;;4996130;28;20018;-67
2023/10/04 14:32:07;;;;;;;12.65;2.47;;;;;;;;;;4995765;28;20247;-67
2023/10/04 14:34:32;;;;;;;11.27;2.77;;;;;;;;;;4995827;28;20034;-67
2023/10/04 14:36:57;;;;;;;10.77;2.53;;;;;;;;;;4995799;28;20256;-67